sensor_id;sensor_type;location;lat;lon;timestamp;P1;durP1;ratioP1;P2;durP2;ratioP2
39860;SDS011;25529;49.346;20.886;2022-12-29T00:00:03;23.88;;;8.88;;
39860;SDS011;25529;49.346;20.886;2022-12-29T00:02:29;27.80;;;10.07;;
39860;SDS011;25529;49.346;20.886;2022-12-29T00:04:54;24.20;;;8.30;;
39860;SDS011;25529;49.346;20.886;2022-12-29T00:07:21;24.67;;;8.90;;
39860;SDS011;25529;49.346;20.886;2022-12-29T00:12:49;22.98;;;8.13;;
39860;SDS011;25529;49.346;20.886;2022-12-29T00:15:35;20.83;;;7.53;;
39860;SDS011;25529;49.346;20.886;2022-12-29T00:18:05;23.13;;;7.40;;
39860;SDS011;25529;49.346;20.886;2022-12-29T00:20:33;20.35;;;7.28;;
39860;SDS011;25529;49.346;20.886;2022-12-29T00:23:17;20.83;;;7.50;;
39860;SDS011;25529;49.346;20.886;2022-12-29T00:26:02;22.17;;;7.55;;
39860;SDS011;25529;49.346;20.886;2022-12-29T00:28:47;22.25;;;7.60;;
39860;SDS011;25529;49.346;20.886;2022-12-29T00:31:33;23.02;;;7.43;;
39860;SDS011;25529;49.346;20.886;2022-12-29T00:34:17;22.08;;;7.35;;
39860;SDS011;25529;49.346;20.886;2022-12-29T00:37:04;22.17;;;6.85;;
39860;SDS011;25529;49.346;20.886;2022-12-29T00:39:31;23.95;;;8.18;;
39860;SDS011;25529;49.346;20.886;2022-12-29T00:42:14;23.63;;;8.60;;
39860;SDS011;25529;49.346;20.886;2022-12-29T00:44:58;21.75;;;7.57;;
39860;SDS011;25529;49.346;20.886;2022-12-29T00:47:25;24.02;;;7.38;;
39860;SDS011;25529;49.346;20.886;2022-12-29T00:49:51;24.30;;;7.70;;
39860;SDS011;25529;49.346;20.886;2022-12-29T00:52:16;22.38;;;7.18;;
39860;SDS011;25529;49.346;20.886;2022-12-29T00:54:42;22.52;;;7.60;;
39860;SDS011;25529;49.346;20.886;2022-12-29T00:57:10;19.77;;;6.88;;
39860;SDS011;25529;49.346;20.886;2022-12-29T00:59:36;22.45;;;7.60;;
39860;SDS011;25529;49.346;20.886;2022-12-29T01:02:03;21.10;;;7.05;;
39860;SDS011;25529;49.346;20.886;2022-12-29T01:04:29;20.58;;;6.60;;
39860;SDS011;25529;49.346;20.886;2022-12-29T01:06:55;19.42;;;6.45;;
39860;SDS011;25529;49.346;20.886;2022-12-29T01:09:20;19.05;;;6.18;;
39860;SDS011;25529;49.346;20.886;2022-12-29T01:12:05;20.55;;;6.63;;
39860;SDS011;25529;49.346;20.886;2022-12-29T01:14:32;23.10;;;6.82;;
39860;SDS011;25529;49.346;20.886;2022-12-29T01:16:58;20.10;;;6.50;;
39860;SDS011;25529;49.346;20.886;2022-12-29T01:19:24;19.75;;;6.85;;
39860;SDS011;25529;49.346;20.886;2022-12-29T01:21:49;22.00;;;6.68;;
39860;SDS011;25529;49.346;20.886;2022-12-29T01:24:15;20.50;;;6.75;;
39860;SDS011;25529;49.346;20.886;2022-12-29T01:26:41;19.42;;;6.22;;
39860;SDS011;25529;49.346;20.886;2022-12-29T01:29:07;18.20;;;6.00;;
39860;SDS011;25529;49.346;20.886;2022-12-29T01:31:34;18.30;;;5.95;;
39860;SDS011;25529;49.346;20.886;2022-12-29T01:34:00;18.60;;;5.85;;
39860;SDS011;25529;49.346;20.886;2022-12-29T01:36:25;17.90;;;5.78;;
39860;SDS011;25529;49.346;20.886;2022-12-29T01:38:50;18.10;;;5.93;;
39860;SDS011;25529;49.346;20.886;2022-12-29T01:41:16;18.83;;;5.65;;
39860;SDS011;25529;49.346;20.886;2022-12-29T01:43:43;19.25;;;6.00;;
39860;SDS011;25529;49.346;20.886;2022-12-29T01:48:52;21.05;;;5.57;;
39860;SDS011;25529;49.346;20.886;2022-12-29T01:51:19;15.52;;;4.95;;
39860;SDS011;25529;49.346;20.886;2022-12-29T01:53:46;17.65;;;5.35;;
39860;SDS011;25529;49.346;20.886;2022-12-29T01:56:12;17.25;;;5.20;;
39860;SDS011;25529;49.346;20.886;2022-12-29T01:58:41;17.33;;;5.50;;
39860;SDS011;25529;49.346;20.886;2022-12-29T02:01:07;14.48;;;4.78;;
39860;SDS011;25529;49.346;20.886;2022-12-29T02:03:33;16.77;;;5.65;;
39860;SDS011;25529;49.346;20.886;2022-12-29T02:06:14;15.18;;;5.15;;
39860;SDS011;25529;49.346;20.886;2022-12-29T02:08:41;16.80;;;4.85;;
39860;SDS011;25529;49.346;20.886;2022-12-29T02:11:09;17.30;;;5.63;;
39860;SDS011;25529;49.346;20.886;2022-12-29T02:13:35;18.30;;;5.28;;
39860;SDS011;25529;49.346;20.886;2022-12-29T02:26:34;14.65;;;4.97;;
39860;SDS011;25529;49.346;20.886;2022-12-29T02:29:16;15.80;;;5.20;;
39860;SDS011;25529;49.346;20.886;2022-12-29T02:31:46;18.52;;;5.18;;
39860;SDS011;25529;49.346;20.886;2022-12-29T02:34:22;15.60;;;4.93;;
39860;SDS011;25529;49.346;20.886;2022-12-29T02:40:02;15.07;;;4.90;;
39860;SDS011;25529;49.346;20.886;2022-12-29T02:49:49;17.23;;;5.30;;
39860;SDS011;25529;49.346;20.886;2022-12-29T02:52:20;18.17;;;5.65;;
39860;SDS011;25529;49.346;20.886;2022-12-29T02:54:53;17.38;;;5.40;;
39860;SDS011;25529;49.346;20.886;2022-12-29T03:00:23;15.90;;;5.07;;
39860;SDS011;25529;49.346;20.886;2022-12-29T03:18:56;18.25;;;5.50;;
39860;SDS011;25529;49.346;20.886;2022-12-29T03:21:34;17.23;;;5.35;;
39860;SDS011;25529;49.346;20.886;2022-12-29T03:24:22;16.70;;;5.30;;
39860;SDS011;25529;49.346;20.886;2022-12-29T03:26:50;17.85;;;5.45;;
39860;SDS011;25529;49.346;20.886;2022-12-29T03:29:17;15.50;;;5.20;;
39860;SDS011;25529;49.346;20.886;2022-12-29T03:31:44;14.40;;;5.00;;
39860;SDS011;25529;49.346;20.886;2022-12-29T03:34:09;17.85;;;5.05;;
39860;SDS011;25529;49.346;20.886;2022-12-29T03:36:39;19.50;;;5.80;;
39860;SDS011;25529;49.346;20.886;2022-12-29T03:39:08;19.60;;;5.80;;
39860;SDS011;25529;49.346;20.886;2022-12-29T03:41:36;20.70;;;5.53;;
39860;SDS011;25529;49.346;20.886;2022-12-29T03:44:05;17.08;;;5.53;;
39860;SDS011;25529;49.346;20.886;2022-12-29T03:46:31;17.63;;;5.50;;
39860;SDS011;25529;49.346;20.886;2022-12-29T03:48:56;18.88;;;5.30;;
39860;SDS011;25529;49.346;20.886;2022-12-29T03:51:22;16.63;;;4.97;;
39860;SDS011;25529;49.346;20.886;2022-12-29T03:53:49;19.05;;;5.90;;
39860;SDS011;25529;49.346;20.886;2022-12-29T03:56:14;28.52;;;12.38;;
39860;SDS011;25529;49.346;20.886;2022-12-29T03:58:39;26.83;;;11.25;;
39860;SDS011;25529;49.346;20.886;2022-12-29T04:01:05;23.27;;;8.20;;
39860;SDS011;25529;49.346;20.886;2022-12-29T04:03:30;20.75;;;6.40;;
39860;SDS011;25529;49.346;20.886;2022-12-29T04:05:57;20.00;;;6.93;;
39860;SDS011;25529;49.346;20.886;2022-12-29T04:08:24;18.55;;;7.13;;
39860;SDS011;25529;49.346;20.886;2022-12-29T04:10:49;19.40;;;6.68;;
39860;SDS011;25529;49.346;20.886;2022-12-29T04:13:15;28.08;;;11.38;;
39860;SDS011;25529;49.346;20.886;2022-12-29T04:15:40;25.10;;;9.00;;
39860;SDS011;25529;49.346;20.886;2022-12-29T04:18:07;25.27;;;9.30;;
39860;SDS011;25529;49.346;20.886;2022-12-29T04:20:33;20.17;;;7.07;;
39860;SDS011;25529;49.346;20.886;2022-12-29T04:23:17;19.58;;;6.22;;
39860;SDS011;25529;49.346;20.886;2022-12-29T04:25:44;21.00;;;6.07;;
39860;SDS011;25529;49.346;20.886;2022-12-29T04:28:10;20.30;;;6.55;;
39860;SDS011;25529;49.346;20.886;2022-12-29T04:30:35;19.90;;;6.18;;
39860;SDS011;25529;49.346;20.886;2022-12-29T04:33:00;18.60;;;5.97;;
39860;SDS011;25529;49.346;20.886;2022-12-29T04:35:27;20.63;;;6.00;;
39860;SDS011;25529;49.346;20.886;2022-12-29T04:37:54;19.48;;;5.85;;
39860;SDS011;25529;49.346;20.886;2022-12-29T04:40:19;19.70;;;6.00;;
39860;SDS011;25529;49.346;20.886;2022-12-29T04:42:44;18.02;;;5.93;;
39860;SDS011;25529;49.346;20.886;2022-12-29T04:45:10;19.85;;;5.78;;
39860;SDS011;25529;49.346;20.886;2022-12-29T04:47:35;17.17;;;5.32;;
39860;SDS011;25529;49.346;20.886;2022-12-29T04:50:02;16.48;;;5.65;;
39860;SDS011;25529;49.346;20.886;2022-12-29T04:52:27;18.58;;;5.53;;
39860;SDS011;25529;49.346;20.886;2022-12-29T04:54:53;18.65;;;5.57;;
39860;SDS011;25529;49.346;20.886;2022-12-29T04:57:18;18.88;;;5.80;;
39860;SDS011;25529;49.346;20.886;2022-12-29T04:59:43;16.48;;;5.68;;
39860;SDS011;25529;49.346;20.886;2022-12-29T05:02:08;20.05;;;5.93;;
39860;SDS011;25529;49.346;20.886;2022-12-29T05:04:35;14.13;;;5.03;;
39860;SDS011;25529;49.346;20.886;2022-12-29T05:07:01;16.23;;;5.68;;
39860;SDS011;25529;49.346;20.886;2022-12-29T05:09:27;18.83;;;5.72;;
39860;SDS011;25529;49.346;20.886;2022-12-29T05:11:52;18.70;;;5.85;;
39860;SDS011;25529;49.346;20.886;2022-12-29T05:14:17;18.10;;;5.68;;
39860;SDS011;25529;49.346;20.886;2022-12-29T05:16:43;17.27;;;5.55;;
39860;SDS011;25529;49.346;20.886;2022-12-29T05:19:09;17.67;;;5.43;;
39860;SDS011;25529;49.346;20.886;2022-12-29T05:24:50;19.75;;;6.05;;
39860;SDS011;25529;49.346;20.886;2022-12-29T05:27:15;20.30;;;6.10;;
39860;SDS011;25529;49.346;20.886;2022-12-29T05:29:42;19.75;;;6.15;;
39860;SDS011;25529;49.346;20.886;2022-12-29T05:32:08;21.48;;;6.18;;
39860;SDS011;25529;49.346;20.886;2022-12-29T05:34:34;19.23;;;6.25;;
39860;SDS011;25529;49.346;20.886;2022-12-29T05:36:59;19.70;;;6.57;;
39860;SDS011;25529;49.346;20.886;2022-12-29T05:39:24;20.83;;;6.20;;
39860;SDS011;25529;49.346;20.886;2022-12-29T05:41:50;18.55;;;5.90;;
39860;SDS011;25529;49.346;20.886;2022-12-29T05:44:16;18.15;;;6.00;;
39860;SDS011;25529;49.346;20.886;2022-12-29T05:46:43;19.15;;;5.88;;
39860;SDS011;25529;49.346;20.886;2022-12-29T05:49:08;20.15;;;6.60;;
39860;SDS011;25529;49.346;20.886;2022-12-29T05:54:37;19.73;;;6.82;;
39860;SDS011;25529;49.346;20.886;2022-12-29T05:57:04;17.80;;;6.35;;
39860;SDS011;25529;49.346;20.886;2022-12-29T05:59:29;23.23;;;7.25;;
39860;SDS011;25529;49.346;20.886;2022-12-29T06:01:55;19.67;;;6.70;;
39860;SDS011;25529;49.346;20.886;2022-12-29T06:04:20;18.65;;;6.28;;
39860;SDS011;25529;49.346;20.886;2022-12-29T06:06:45;20.92;;;6.40;;
39860;SDS011;25529;49.346;20.886;2022-12-29T06:09:10;19.48;;;6.18;;
39860;SDS011;25529;49.346;20.886;2022-12-29T06:11:37;19.40;;;6.40;;
39860;SDS011;25529;49.346;20.886;2022-12-29T06:14:03;19.33;;;6.38;;
39860;SDS011;25529;49.346;20.886;2022-12-29T06:16:28;21.00;;;6.60;;
39860;SDS011;25529;49.346;20.886;2022-12-29T06:18:53;20.20;;;6.82;;
39860;SDS011;25529;49.346;20.886;2022-12-29T06:21:19;20.88;;;6.45;;
39860;SDS011;25529;49.346;20.886;2022-12-29T06:23:44;20.63;;;6.28;;
39860;SDS011;25529;49.346;20.886;2022-12-29T06:26:10;19.73;;;6.43;;
39860;SDS011;25529;49.346;20.886;2022-12-29T06:28:36;16.85;;;6.20;;
39860;SDS011;25529;49.346;20.886;2022-12-29T06:31:01;21.33;;;6.70;;
39860;SDS011;25529;49.346;20.886;2022-12-29T06:33:28;23.48;;;6.28;;
39860;SDS011;25529;49.346;20.886;2022-12-29T06:35:53;20.60;;;6.63;;
39860;SDS011;25529;49.346;20.886;2022-12-29T06:38:18;20.33;;;6.50;;
39860;SDS011;25529;49.346;20.886;2022-12-29T06:40:45;19.52;;;6.70;;
39860;SDS011;25529;49.346;20.886;2022-12-29T06:43:10;20.70;;;6.75;;
39860;SDS011;25529;49.346;20.886;2022-12-29T06:45:37;19.65;;;6.13;;
39860;SDS011;25529;49.346;20.886;2022-12-29T06:48:03;19.92;;;6.57;;
39860;SDS011;25529;49.346;20.886;2022-12-29T06:50:28;21.23;;;6.85;;
39860;SDS011;25529;49.346;20.886;2022-12-29T06:52:53;20.45;;;6.43;;
39860;SDS011;25529;49.346;20.886;2022-12-29T06:55:20;19.13;;;6.13;;
39860;SDS011;25529;49.346;20.886;2022-12-29T06:57:47;21.20;;;7.15;;
39860;SDS011;25529;49.346;20.886;2022-12-29T07:00:13;19.65;;;6.15;;
39860;SDS011;25529;49.346;20.886;2022-12-29T07:02:38;18.80;;;6.55;;
39860;SDS011;25529;49.346;20.886;2022-12-29T07:05:03;20.27;;;6.82;;
39860;SDS011;25529;49.346;20.886;2022-12-29T07:07:29;21.15;;;7.20;;
39860;SDS011;25529;49.346;20.886;2022-12-29T07:09:56;20.92;;;6.97;;
39860;SDS011;25529;49.346;20.886;2022-12-29T07:12:21;20.17;;;6.07;;
39860;SDS011;25529;49.346;20.886;2022-12-29T07:17:50;25.42;;;9.68;;
39860;SDS011;25529;49.346;20.886;2022-12-29T07:20:16;24.55;;;8.45;;
39860;SDS011;25529;49.346;20.886;2022-12-29T07:22:43;21.25;;;7.50;;
39860;SDS011;25529;49.346;20.886;2022-12-29T07:25:12;22.98;;;7.28;;
39860;SDS011;25529;49.346;20.886;2022-12-29T07:27:37;20.73;;;7.07;;
39860;SDS011;25529;49.346;20.886;2022-12-29T07:30:02;21.92;;;7.32;;
39860;SDS011;25529;49.346;20.886;2022-12-29T07:35:33;21.30;;;7.07;;
39860;SDS011;25529;49.346;20.886;2022-12-29T07:37:59;22.55;;;7.72;;
39860;SDS011;25529;49.346;20.886;2022-12-29T07:40:24;20.98;;;7.22;;
39860;SDS011;25529;49.346;20.886;2022-12-29T07:42:50;23.40;;;8.48;;
39860;SDS011;25529;49.346;20.886;2022-12-29T07:45:16;23.70;;;8.15;;
39860;SDS011;25529;49.346;20.886;2022-12-29T07:47:42;23.75;;;8.23;;
39860;SDS011;25529;49.346;20.886;2022-12-29T07:50:09;22.05;;;8.05;;
39860;SDS011;25529;49.346;20.886;2022-12-29T07:52:34;22.38;;;8.10;;
39860;SDS011;25529;49.346;20.886;2022-12-29T07:55:00;21.40;;;7.38;;
39860;SDS011;25529;49.346;20.886;2022-12-29T07:57:25;20.92;;;8.10;;
39860;SDS011;25529;49.346;20.886;2022-12-29T07:59:51;22.98;;;8.57;;
39860;SDS011;25529;49.346;20.886;2022-12-29T08:02:17;21.90;;;7.70;;
39860;SDS011;25529;49.346;20.886;2022-12-29T08:04:44;22.08;;;7.55;;
39860;SDS011;25529;49.346;20.886;2022-12-29T08:07:09;22.50;;;7.65;;
39860;SDS011;25529;49.346;20.886;2022-12-29T08:09:34;22.95;;;7.57;;
39860;SDS011;25529;49.346;20.886;2022-12-29T08:12:00;20.30;;;7.30;;
39860;SDS011;25529;49.346;20.886;2022-12-29T08:14:25;21.58;;;7.40;;
39860;SDS011;25529;49.346;20.886;2022-12-29T08:16:51;21.85;;;8.10;;
39860;SDS011;25529;49.346;20.886;2022-12-29T08:19:18;20.75;;;7.55;;
39860;SDS011;25529;49.346;20.886;2022-12-29T08:21:43;26.13;;;8.32;;
39860;SDS011;25529;49.346;20.886;2022-12-29T08:24:09;23.98;;;8.18;;
39860;SDS011;25529;49.346;20.886;2022-12-29T08:26:34;20.85;;;7.38;;
39860;SDS011;25529;49.346;20.886;2022-12-29T08:29:00;32.28;;;13.68;;
39860;SDS011;25529;49.346;20.886;2022-12-29T08:31:27;26.95;;;9.80;;
39860;SDS011;25529;49.346;20.886;2022-12-29T08:33:52;23.80;;;8.65;;
39860;SDS011;25529;49.346;20.886;2022-12-29T08:36:19;22.38;;;8.05;;
39860;SDS011;25529;49.346;20.886;2022-12-29T08:38:45;23.52;;;8.82;;
39860;SDS011;25529;49.346;20.886;2022-12-29T08:41:10;23.60;;;9.10;;
39860;SDS011;25529;49.346;20.886;2022-12-29T08:49:41;28.07;;;11.53;;
39860;SDS011;25529;49.346;20.886;2022-12-29T08:52:07;27.50;;;11.52;;
39860;SDS011;25529;49.346;20.886;2022-12-29T08:54:34;28.88;;;10.80;;
39860;SDS011;25529;49.346;20.886;2022-12-29T08:57:02;31.02;;;12.00;;
39860;SDS011;25529;49.346;20.886;2022-12-29T08:59:28;30.15;;;11.57;;
39860;SDS011;25529;49.346;20.886;2022-12-29T09:04:56;28.30;;;12.23;;
39860;SDS011;25529;49.346;20.886;2022-12-29T09:07:23;26.75;;;11.85;;
39860;SDS011;25529;49.346;20.886;2022-12-29T09:09:49;27.45;;;11.48;;
39860;SDS011;25529;49.346;20.886;2022-12-29T09:12:15;30.75;;;12.38;;
39860;SDS011;25529;49.346;20.886;2022-12-29T09:14:40;28.23;;;11.30;;
39860;SDS011;25529;49.346;20.886;2022-12-29T09:17:07;29.33;;;12.05;;
39860;SDS011;25529;49.346;20.886;2022-12-29T09:19:52;34.20;;;14.07;;
39860;SDS011;25529;49.346;20.886;2022-12-29T09:22:18;29.92;;;12.27;;
39860;SDS011;25529;49.346;20.886;2022-12-29T09:27:58;27.52;;;11.02;;
39860;SDS011;25529;49.346;20.886;2022-12-29T09:30:24;28.30;;;12.07;;
39860;SDS011;25529;49.346;20.886;2022-12-29T09:32:50;32.40;;;14.63;;
39860;SDS011;25529;49.346;20.886;2022-12-29T09:35:15;28.27;;;11.57;;
39860;SDS011;25529;49.346;20.886;2022-12-29T09:37:41;27.73;;;10.95;;
39860;SDS011;25529;49.346;20.886;2022-12-29T09:40:07;26.25;;;10.27;;
39860;SDS011;25529;49.346;20.886;2022-12-29T09:42:48;25.80;;;11.13;;
39860;SDS011;25529;49.346;20.886;2022-12-29T09:45:39;27.38;;;10.50;;
39860;SDS011;25529;49.346;20.886;2022-12-29T09:50:35;29.60;;;11.95;;
39860;SDS011;25529;49.346;20.886;2022-12-29T09:53:11;27.73;;;11.23;;
39860;SDS011;25529;49.346;20.886;2022-12-29T09:55:59;81.57;;;55.95;;
39860;SDS011;25529;49.346;20.886;2022-12-29T10:01:05;25.35;;;10.07;;
39860;SDS011;25529;49.346;20.886;2022-12-29T10:03:45;23.67;;;8.77;;
39860;SDS011;25529;49.346;20.886;2022-12-29T10:11:56;24.65;;;8.82;;
39860;SDS011;25529;49.346;20.886;2022-12-29T10:17:34;21.85;;;8.23;;
39860;SDS011;25529;49.346;20.886;2022-12-29T10:25:20;25.30;;;8.98;;
39860;SDS011;25529;49.346;20.886;2022-12-29T10:27:47;23.88;;;8.65;;
39860;SDS011;25529;49.346;20.886;2022-12-29T10:30:13;21.15;;;8.20;;
39860;SDS011;25529;49.346;20.886;2022-12-29T10:32:40;21.98;;;7.82;;
39860;SDS011;25529;49.346;20.886;2022-12-29T10:35:12;28.23;;;10.38;;
39860;SDS011;25529;49.346;20.886;2022-12-29T10:37:48;26.17;;;9.50;;
39860;SDS011;25529;49.346;20.886;2022-12-29T10:42:46;23.33;;;8.10;;
39860;SDS011;25529;49.346;20.886;2022-12-29T10:45:14;22.05;;;7.70;;
39860;SDS011;25529;49.346;20.886;2022-12-29T10:47:57;23.77;;;8.23;;
39860;SDS011;25529;49.346;20.886;2022-12-29T10:50:24;22.45;;;8.07;;
39860;SDS011;25529;49.346;20.886;2022-12-29T10:52:50;22.48;;;8.50;;
39860;SDS011;25529;49.346;20.886;2022-12-29T10:55:21;21.77;;;8.18;;
39860;SDS011;25529;49.346;20.886;2022-12-29T10:57:51;22.52;;;8.10;;
39860;SDS011;25529;49.346;20.886;2022-12-29T11:00:18;22.90;;;7.97;;
39860;SDS011;25529;49.346;20.886;2022-12-29T11:05:59;27.80;;;10.13;;
39860;SDS011;25529;49.346;20.886;2022-12-29T11:08:28;40.83;;;22.65;;
39860;SDS011;25529;49.346;20.886;2022-12-29T11:11:00;27.08;;;11.45;;
39860;SDS011;25529;49.346;20.886;2022-12-29T11:13:29;23.02;;;8.88;;
39860;SDS011;25529;49.346;20.886;2022-12-29T11:15:55;21.85;;;8.30;;
39860;SDS011;25529;49.346;20.886;2022-12-29T11:18:24;24.45;;;9.95;;
39860;SDS011;25529;49.346;20.886;2022-12-29T11:20:55;32.50;;;15.55;;
39860;SDS011;25529;49.346;20.886;2022-12-29T11:23:37;24.50;;;9.45;;
39860;SDS011;25529;49.346;20.886;2022-12-29T11:28:31;26.20;;;9.35;;
39860;SDS011;25529;49.346;20.886;2022-12-29T11:30:59;24.65;;;8.10;;
39860;SDS011;25529;49.346;20.886;2022-12-29T11:33:29;25.80;;;8.60;;
39860;SDS011;25529;49.346;20.886;2022-12-29T11:38:57;24.02;;;8.57;;
39860;SDS011;25529;49.346;20.886;2022-12-29T11:41:24;21.58;;;8.23;;
39860;SDS011;25529;49.346;20.886;2022-12-29T11:43:52;23.73;;;8.43;;
39860;SDS011;25529;49.346;20.886;2022-12-29T11:46:36;23.73;;;8.75;;
39860;SDS011;25529;49.346;20.886;2022-12-29T11:52:06;21.88;;;8.75;;
39860;SDS011;25529;49.346;20.886;2022-12-29T11:54:33;22.70;;;8.70;;
39860;SDS011;25529;49.346;20.886;2022-12-29T11:57:08;22.92;;;9.05;;
39860;SDS011;25529;49.346;20.886;2022-12-29T11:59:53;24.23;;;8.70;;
39860;SDS011;25529;49.346;20.886;2022-12-29T12:02:22;25.25;;;8.88;;
39860;SDS011;25529;49.346;20.886;2022-12-29T12:05:03;22.83;;;8.15;;
39860;SDS011;25529;49.346;20.886;2022-12-29T12:07:41;22.75;;;8.25;;
39860;SDS011;25529;49.346;20.886;2022-12-29T12:10:11;32.05;;;15.07;;
39860;SDS011;25529;49.346;20.886;2022-12-29T12:12:47;25.52;;;10.30;;
39860;SDS011;25529;49.346;20.886;2022-12-29T12:24:20;24.52;;;8.55;;
39860;SDS011;25529;49.346;20.886;2022-12-29T12:29:14;23.35;;;8.15;;
39860;SDS011;25529;49.346;20.886;2022-12-29T12:34:44;23.42;;;8.75;;
39860;SDS011;25529;49.346;20.886;2022-12-29T12:37:29;25.73;;;8.98;;
39860;SDS011;25529;49.346;20.886;2022-12-29T12:40:07;26.00;;;8.73;;
39860;SDS011;25529;49.346;20.886;2022-12-29T13:07:50;25.55;;;9.07;;
39860;SDS011;25529;49.346;20.886;2022-12-29T13:26:29;24.20;;;9.27;;
39860;SDS011;25529;49.346;20.886;2022-12-29T13:45:35;23.45;;;8.73;;
39860;SDS011;25529;49.346;20.886;2022-12-29T13:48:21;23.92;;;8.55;;
39860;SDS011;25529;49.346;20.886;2022-12-29T13:50:57;23.88;;;9.70;;
39860;SDS011;25529;49.346;20.886;2022-12-29T13:58:46;78.95;;;42.15;;
39860;SDS011;25529;49.346;20.886;2022-12-29T14:09:35;24.70;;;9.85;;
39860;SDS011;25529;49.346;20.886;2022-12-29T14:18:02;24.27;;;9.80;;
39860;SDS011;25529;49.346;20.886;2022-12-29T14:20:29;24.83;;;10.00;;
39860;SDS011;25529;49.346;20.886;2022-12-29T14:25:58;24.35;;;9.27;;
39860;SDS011;25529;49.346;20.886;2022-12-29T14:28:34;26.33;;;10.05;;
39860;SDS011;25529;49.346;20.886;2022-12-29T14:31:02;26.77;;;9.85;;
39860;SDS011;25529;49.346;20.886;2022-12-29T14:33:29;27.55;;;11.20;;
39860;SDS011;25529;49.346;20.886;2022-12-29T14:35:55;30.80;;;12.77;;
39860;SDS011;25529;49.346;20.886;2022-12-29T14:38:27;33.55;;;13.88;;
39860;SDS011;25529;49.346;20.886;2022-12-29T14:41:15;41.17;;;15.77;;
39860;SDS011;25529;49.346;20.886;2022-12-29T14:43:40;37.35;;;16.13;;
39860;SDS011;25529;49.346;20.886;2022-12-29T14:46:16;34.75;;;15.05;;
39860;SDS011;25529;49.346;20.886;2022-12-29T14:48:42;33.67;;;15.60;;
39860;SDS011;25529;49.346;20.886;2022-12-29T14:51:21;36.50;;;17.50;;
39860;SDS011;25529;49.346;20.886;2022-12-29T14:53:51;38.63;;;17.58;;
39860;SDS011;25529;49.346;20.886;2022-12-29T14:56:20;38.40;;;17.38;;
39860;SDS011;25529;49.346;20.886;2022-12-29T15:01:17;38.70;;;17.20;;
39860;SDS011;25529;49.346;20.886;2022-12-29T15:03:54;37.25;;;17.60;;
39860;SDS011;25529;49.346;20.886;2022-12-29T15:06:19;37.67;;;16.60;;
39860;SDS011;25529;49.346;20.886;2022-12-29T15:09:04;41.08;;;18.42;;
39860;SDS011;25529;49.346;20.886;2022-12-29T15:11:41;73.55;;;38.75;;
39860;SDS011;25529;49.346;20.886;2022-12-29T15:14:28;42.50;;;19.13;;
39860;SDS011;25529;49.346;20.886;2022-12-29T15:16:53;56.05;;;28.55;;
39860;SDS011;25529;49.346;20.886;2022-12-29T15:19:23;43.90;;;19.33;;
39860;SDS011;25529;49.346;20.886;2022-12-29T15:21:50;40.13;;;18.83;;
39860;SDS011;25529;49.346;20.886;2022-12-29T15:24:18;39.15;;;17.50;;
39860;SDS011;25529;49.346;20.886;2022-12-29T15:26:45;38.65;;;18.30;;
39860;SDS011;25529;49.346;20.886;2022-12-29T15:31:57;39.30;;;18.48;;
39860;SDS011;25529;49.346;20.886;2022-12-29T15:34:23;43.83;;;19.90;;
39860;SDS011;25529;49.346;20.886;2022-12-29T15:36:49;38.75;;;18.73;;
39860;SDS011;25529;49.346;20.886;2022-12-29T15:39:18;37.72;;;17.60;;
39860;SDS011;25529;49.346;20.886;2022-12-29T15:41:50;38.90;;;18.08;;
39860;SDS011;25529;49.346;20.886;2022-12-29T15:44:36;36.13;;;17.63;;
39860;SDS011;25529;49.346;20.886;2022-12-29T15:47:05;39.53;;;17.83;;
39860;SDS011;25529;49.346;20.886;2022-12-29T15:52:35;35.40;;;15.82;;
39860;SDS011;25529;49.346;20.886;2022-12-29T15:55:05;35.20;;;16.08;;
39860;SDS011;25529;49.346;20.886;2022-12-29T16:01:03;35.00;;;17.00;;
39860;SDS011;25529;49.346;20.886;2022-12-29T16:03:33;36.83;;;17.73;;
39860;SDS011;25529;49.346;20.886;2022-12-29T16:06:09;40.17;;;18.48;;
39860;SDS011;25529;49.346;20.886;2022-12-29T16:11:39;39.67;;;18.63;;
39860;SDS011;25529;49.346;20.886;2022-12-29T16:14:16;39.08;;;18.70;;
39860;SDS011;25529;49.346;20.886;2022-12-29T16:17:01;41.38;;;18.42;;
39860;SDS011;25529;49.346;20.886;2022-12-29T16:19:38;39.97;;;18.55;;
39860;SDS011;25529;49.346;20.886;2022-12-29T16:22:52;39.08;;;18.30;;
39860;SDS011;25529;49.346;20.886;2022-12-29T16:28:23;37.25;;;18.33;;
39860;SDS011;25529;49.346;20.886;2022-12-29T16:31:02;40.50;;;19.42;;
39860;SDS011;25529;49.346;20.886;2022-12-29T17:21:54;42.03;;;19.48;;
39860;SDS011;25529;49.346;20.886;2022-12-29T17:33:28;40.03;;;19.42;;
39860;SDS011;25529;49.346;20.886;2022-12-29T17:39:01;40.92;;;19.65;;
39860;SDS011;25529;49.346;20.886;2022-12-29T17:41:28;41.47;;;21.25;;
39860;SDS011;25529;49.346;20.886;2022-12-29T17:46:56;43.60;;;21.33;;
39860;SDS011;25529;49.346;20.886;2022-12-29T17:49:24;51.15;;;25.20;;
39860;SDS011;25529;49.346;20.886;2022-12-29T17:54:44;45.65;;;22.73;;
39860;SDS011;25529;49.346;20.886;2022-12-29T17:57:13;42.00;;;20.40;;
39860;SDS011;25529;49.346;20.886;2022-12-29T18:08:29;55.80;;;28.50;;
39860;SDS011;25529;49.346;20.886;2022-12-29T18:20:03;42.55;;;21.55;;
39860;SDS011;25529;49.346;20.886;2022-12-29T18:22:28;44.75;;;23.40;;
39860;SDS011;25529;49.346;20.886;2022-12-29T18:31:19;47.90;;;23.05;;
39860;SDS011;25529;49.346;20.886;2022-12-29T18:36:55;42.55;;;21.17;;
39860;SDS011;25529;49.346;20.886;2022-12-29T18:39:22;37.72;;;18.75;;
39860;SDS011;25529;49.346;20.886;2022-12-29T18:44:52;40.30;;;19.63;;
39860;SDS011;25529;49.346;20.886;2022-12-29T18:47:17;40.00;;;19.60;;
39860;SDS011;25529;49.346;20.886;2022-12-29T18:49:42;43.78;;;21.27;;
39860;SDS011;25529;49.346;20.886;2022-12-29T18:55:18;38.67;;;20.27;;
39860;SDS011;25529;49.346;20.886;2022-12-29T18:57:43;39.13;;;19.55;;
39860;SDS011;25529;49.346;20.886;2022-12-29T19:06:14;114.55;;;59.00;;
39860;SDS011;25529;49.346;20.886;2022-12-29T19:11:42;76.80;;;41.27;;
39860;SDS011;25529;49.346;20.886;2022-12-29T19:14:12;54.83;;;27.17;;
39860;SDS011;25529;49.346;20.886;2022-12-29T19:16:38;42.70;;;20.95;;
39860;SDS011;25529;49.346;20.886;2022-12-29T19:22:07;54.00;;;25.63;;
39860;SDS011;25529;49.346;20.886;2022-12-29T19:33:55;46.55;;;22.67;;
39860;SDS011;25529;49.346;20.886;2022-12-29T19:36:21;45.70;;;21.40;;
39860;SDS011;25529;49.346;20.886;2022-12-29T19:38:48;44.53;;;22.13;;
39860;SDS011;25529;49.346;20.886;2022-12-29T19:41:14;45.67;;;22.80;;
39860;SDS011;25529;49.346;20.886;2022-12-29T19:43:40;47.70;;;23.10;;
39860;SDS011;25529;49.346;20.886;2022-12-29T19:49:09;60.95;;;27.17;;
39860;SDS011;25529;49.346;20.886;2022-12-29T19:54:38;109.10;;;59.70;;
39860;SDS011;25529;49.346;20.886;2022-12-29T20:00:06;57.22;;;28.67;;
39860;SDS011;25529;49.346;20.886;2022-12-29T20:05:35;96.47;;;37.92;;
39860;SDS011;25529;49.346;20.886;2022-12-29T20:08:03;98.63;;;36.25;;
39860;SDS011;25529;49.346;20.886;2022-12-29T20:10:30;71.05;;;29.33;;
39860;SDS011;25529;49.346;20.886;2022-12-29T20:12:56;63.28;;;29.42;;
39860;SDS011;25529;49.346;20.886;2022-12-29T20:18:23;103.85;;;41.67;;